Погода Лагоса Сантана 2 недели

Минас-Жерайс, Бразилия

21 июля-03 августа
  • 21июля
    Сегодня
    +14°
    +26°
    Ясно и безоблачно
    ВремяПогодаТемператураВлажностьДавлениеВетер, м/сВероятность осадков
    00:00Ясно и безоблачно+16°C68 %689 мм2.2 м/с5 %
    03:00Ясно и безоблачно+15°C80 %689 мм1.9 м/с5 %
    06:00Ясно и безоблачно+14°C86 %689 мм3.6 м/с5 %
    09:00Ясно и безоблачно+18°C54 %691 мм2.8 м/с5 %
    12:00Ясно и безоблачно+24°C33 %690 мм2.5 м/с5 %
    15:00Ясно и безоблачно+26°C27 %689 мм2.9 м/с5 %
    18:00Ясно и безоблачно+22°C46 %689 мм2.9 м/с5 %
    21:00Ясно и безоблачно+19°C58 %690 мм3.4 м/с5 %
  • 22июля
    Понедельник
    +14°
    +27°
    Ясно и безоблачно
    ВремяПогодаТемператураВлажностьДавлениеВетер, м/сВероятность осадков
    00:00Ясно и безоблачно+17°C65 %689 мм1.2 м/с5 %
    03:00Ясно и безоблачно+15°C88 %688 мм2.1 м/с5 %
    06:00Ясно и безоблачно+15°C86 %689 мм3.4 м/с5 %
    09:00Ясно и безоблачно+18°C56 %691 мм2.4 м/с4 %
    12:00Ясно и безоблачно+24°C35 %691 мм1.4 м/с4 %
    15:00Ясно и безоблачно+26°C30 %689 мм2.2 м/с5 %
    18:00Ясно и безоблачно+22°C42 %689 мм2.6 м/с5 %
    21:00Ясно и безоблачно+20°C58 %690 мм3.2 м/с5 %
  • 23июля
    Вторник
    +13°
    +27°
    Ясно и безоблачно
    ВремяПогодаТемператураВлажностьДавлениеВетер, м/сВероятность осадков
    00:00Ясно и безоблачно+18°C71 %690 мм2.0 м/с5 %
    03:00Ясно и безоблачно+16°C82 %689 мм1.9 м/с5 %
    06:00Ясно и безоблачно+15°C87 %689 мм3.5 м/с5 %
    09:00Ясно и безоблачно+19°C52 %691 мм3.1 м/с5 %
    12:00Ясно и безоблачно+25°C37 %691 мм2.6 м/с5 %
    15:00Ясно и безоблачно+26°C31 %690 мм3.4 м/с5 %
    18:00Ясно и безоблачно+22°C48 %690 мм3.1 м/с5 %
    21:00Ясно и безоблачно+19°C60 %691 мм3.4 м/с5 %
  • 24июля
    Среда
    +13°
    +25°
    Небольшая облачность
    ВремяПогодаТемператураВлажностьДавлениеВетер, м/сВероятность осадков
    00:00Ясно и безоблачно+16°C74 %690 мм1.7 м/с5 %
    03:00Ясно и безоблачно+15°C74 %689 мм2.7 м/с5 %
    06:00Ясно и безоблачно+14°C88 %690 мм3.8 м/с5 %
    09:00Ясно и безоблачно+17°C64 %692 мм3.2 м/с5 %
    12:00Практически безоблачно+23°C40 %692 мм2.6 м/с5 %
    15:00Небольшая облачность+25°C33 %690 мм3.2 м/с5 %
    18:00Практически безоблачно+21°C46 %690 мм2.9 м/с5 %
    21:00Ясно и безоблачно+18°C60 %691 мм3.4 м/с5 %
  • 25июля
    Четверг
    +14°
    +26°
    Ясно и безоблачно
    ВремяПогодаТемператураВлажностьДавлениеВетер, м/сВероятность осадков
    00:00Небольшая облачность+16°C73 %690 мм2.1 м/с5 %
    03:00Небольшая облачность+15°C78 %689 мм1.9 м/с5 %
    06:00Ясно и безоблачно+14°C81 %689 мм3.5 м/с5 %
    09:00Ясно и безоблачно+18°C54 %691 мм2.6 м/с5 %
    12:00Ясно и безоблачно+24°C31 %691 мм1.5 м/с5 %
    15:00Ясно и безоблачно+26°C27 %688 мм1.6 м/с5 %
    18:00Ясно и безоблачно+22°C44 %688 мм2.5 м/с5 %
    21:00Ясно и безоблачно+19°C56 %688 мм3.0 м/с5 %
Мы используем cookies
Соглашаюсь